createdAt,value
2023-09-24T00:01:00.135Z,6.90
2023-09-24T00:03:27.639Z,5.50
2023-09-24T00:05:54.704Z,5.83
2023-09-24T00:08:22.224Z,5.23
2023-09-24T00:10:54.075Z,4.80
2023-09-24T00:13:23.018Z,5.30
2023-09-24T00:15:51.277Z,5.30
2023-09-24T00:18:19.124Z,4.00
2023-09-24T00:20:45.904Z,7.80
2023-09-24T00:23:12.782Z,5.83
2023-09-24T00:25:39.471Z,5.50
2023-09-24T00:28:06.228Z,6.23
2023-09-24T00:30:35.380Z,5.60
2023-09-24T00:33:02.299Z,6.33
2023-09-24T00:35:31.325Z,4.67
2023-09-24T00:37:58.225Z,3.93
2023-09-24T00:40:24.976Z,6.60
2023-09-24T00:42:51.788Z,5.97
2023-09-24T00:45:18.506Z,6.37
2023-09-24T00:47:46.715Z,5.63
2023-09-24T00:50:14.960Z,4.97
2023-09-24T00:52:43.842Z,4.97
2023-09-24T00:55:12.742Z,5.10
2023-09-24T00:57:40.175Z,5.13
2023-09-24T01:00:12.442Z,6.77
2023-09-24T01:02:43.002Z,5.20
2023-09-24T01:05:10.510Z,5.77
2023-09-24T01:07:38.550Z,6.03
2023-09-24T01:10:12.210Z,6.63
2023-09-24T01:12:42.288Z,4.97
2023-09-24T01:15:14.671Z,6.17
2023-09-24T01:17:41.728Z,4.83
2023-09-24T01:20:14.639Z,7.00
2023-09-24T01:22:41.983Z,7.53
2023-09-24T01:25:09.223Z,5.37
2023-09-24T01:27:36.623Z,4.27
2023-09-24T01:30:07.268Z,4.90
2023-09-24T01:32:34.234Z,5.53
2023-09-24T01:35:04.589Z,6.20
2023-09-24T01:37:35.051Z,5.27
2023-09-24T01:40:16.849Z,4.73
2023-09-24T01:42:43.574Z,6.93
2023-09-24T01:45:11.553Z,5.23
2023-09-24T01:47:38.438Z,5.90
2023-09-24T01:50:08.314Z,6.63
2023-09-24T01:52:36.517Z,6.17
2023-09-24T01:55:03.539Z,5.90
2023-09-24T01:57:30.971Z,5.67
2023-09-24T01:59:58.022Z,6.37
2023-09-24T02:02:24.863Z,5.13
2023-09-24T02:04:51.714Z,6.37
2023-09-24T02:07:18.375Z,5.57
2023-09-24T02:09:45.096Z,5.13
2023-09-24T02:12:14.037Z,5.83
2023-09-24T02:14:40.843Z,8.60
2023-09-24T02:17:07.635Z,7.17
2023-09-24T02:19:34.348Z,7.00
2023-09-24T02:22:01.161Z,7.20
2023-09-24T02:24:27.924Z,5.50
2023-09-24T02:26:54.639Z,6.57
2023-09-24T02:29:21.470Z,5.60
2023-09-24T02:31:53.300Z,5.10
2023-09-24T02:34:20.078Z,5.53
2023-09-24T02:36:46.854Z,6.10
2023-09-24T02:39:13.640Z,5.60
2023-09-24T02:41:42.443Z,10.43
2023-09-24T02:44:09.178Z,10.07
2023-09-24T02:46:36.166Z,8.87
2023-09-24T02:49:04.098Z,10.97
2023-09-24T02:51:30.855Z,9.67
2023-09-24T02:53:57.643Z,7.53
2023-09-24T02:56:24.427Z,7.30
2023-09-24T02:58:51.154Z,6.20
2023-09-24T03:01:21.188Z,6.83
2023-09-24T03:03:48.277Z,5.73
2023-09-24T03:06:15.231Z,7.90
2023-09-24T03:08:42.109Z,6.87
2023-09-24T03:11:15.629Z,5.90
2023-09-24T03:13:43.451Z,5.33
2023-09-24T03:16:10.248Z,4.47
2023-09-24T03:18:37.161Z,5.53
2023-09-24T03:21:07.539Z,7.93
2023-09-24T03:23:35.193Z,7.70
2023-09-24T03:26:01.986Z,5.20
2023-09-24T03:28:29.081Z,7.57
2023-09-24T03:30:55.870Z,8.70
2023-09-24T03:33:22.762Z,5.90
2023-09-24T03:35:50.452Z,6.13
2023-09-24T03:38:17.828Z,8.17
2023-09-24T03:40:44.548Z,5.00
2023-09-24T03:43:11.303Z,5.37
2023-09-24T03:45:38.158Z,5.07
2023-09-24T03:48:05.317Z,5.07
2023-09-24T03:50:32.103Z,4.87
2023-09-24T03:53:00.636Z,6.00
2023-09-24T03:55:28.307Z,4.93
2023-09-24T03:57:55.446Z,6.97
2023-09-24T04:00:23.282Z,5.13
2023-09-24T04:02:51.785Z,5.87
2023-09-24T04:05:23.960Z,5.60
2023-09-24T04:07:55.969Z,5.53
2023-09-24T04:10:25.247Z,7.83
2023-09-24T04:12:52.683Z,6.77
2023-09-24T04:15:23.063Z,6.73
2023-09-24T04:17:50.701Z,8.80
2023-09-24T04:20:20.905Z,6.37
2023-09-24T04:22:48.490Z,6.50
2023-09-24T04:25:16.802Z,8.07
2023-09-24T04:27:43.854Z,10.23
2023-09-24T04:30:16.499Z,5.27
2023-09-24T04:32:54.310Z,5.77
2023-09-24T04:35:22.185Z,6.67
2023-09-24T04:37:50.302Z,7.77
2023-09-24T04:40:17.420Z,4.80
2023-09-24T04:42:46.368Z,4.90
2023-09-24T04:45:14.242Z,6.20
2023-09-24T04:47:42.630Z,5.83
2023-09-24T04:50:14.432Z,8.13
2023-09-24T04:52:43.601Z,7.27
2023-09-24T04:55:10.696Z,7.07
2023-09-24T04:57:37.682Z,7.17
2023-09-24T05:00:05.675Z,5.07
2023-09-24T05:02:32.608Z,7.13
2023-09-24T05:04:59.566Z,5.33
2023-09-24T05:07:26.762Z,6.73
2023-09-24T05:09:53.644Z,6.40
2023-09-24T05:12:20.720Z,6.03
2023-09-24T05:14:47.614Z,4.50
2023-09-24T05:17:14.433Z,4.60
2023-09-24T05:19:41.150Z,5.17
2023-09-24T05:22:08.993Z,4.60
2023-09-24T05:24:36.175Z,5.47
2023-09-24T05:27:03.156Z,8.80
2023-09-24T05:29:29.948Z,5.13
2023-09-24T05:31:56.999Z,5.03
2023-09-24T05:34:24.334Z,7.20
2023-09-24T05:36:51.371Z,3.73
2023-09-24T05:39:18.079Z,5.53
2023-09-24T05:41:45.355Z,6.93
2023-09-24T05:44:13.219Z,6.60
2023-09-24T05:46:40.168Z,5.57
2023-09-24T05:49:06.880Z,7.40
2023-09-24T05:51:33.617Z,6.90
2023-09-24T05:54:00.414Z,4.83
2023-09-24T05:56:27.620Z,7.13
2023-09-24T05:58:57.516Z,5.93
2023-09-24T06:01:24.502Z,4.90
2023-09-24T06:03:51.650Z,4.80
2023-09-24T06:06:18.708Z,5.43
2023-09-24T06:08:45.553Z,4.90
2023-09-24T06:11:12.513Z,6.17
2023-09-24T06:13:39.623Z,4.40
2023-09-24T06:16:07.547Z,4.80
2023-09-24T06:18:34.468Z,6.97
2023-09-24T06:21:03.881Z,4.80
2023-09-24T06:23:32.106Z,4.03
2023-09-24T06:25:59.776Z,5.77
2023-09-24T06:28:27.441Z,4.93
2023-09-24T06:31:01.437Z,3.87
2023-09-24T06:33:28.791Z,4.07
2023-09-24T06:35:56.170Z,4.53
2023-09-24T06:38:23.145Z,5.00
2023-09-24T06:41:03.727Z,4.20
2023-09-24T06:43:31.530Z,5.60
2023-09-24T06:45:58.512Z,4.10
2023-09-24T06:48:26.609Z,5.70
2023-09-24T06:50:57.145Z,3.67
2023-09-24T06:53:24.556Z,5.30
2023-09-24T06:55:51.379Z,4.40
2023-09-24T06:58:18.129Z,4.90
2023-09-24T07:00:44.810Z,3.80
2023-09-24T07:03:11.790Z,5.32
2023-09-24T07:05:38.754Z,5.10
2023-09-24T07:08:06.136Z,6.07
2023-09-24T07:10:33.206Z,4.72
2023-09-24T07:13:00.105Z,5.80
2023-09-24T07:15:26.856Z,5.78
2023-09-24T07:17:54.747Z,5.95
2023-09-24T07:20:21.980Z,4.18
2023-09-24T07:22:48.805Z,5.35
2023-09-24T07:25:15.671Z,7.75
2023-09-24T07:27:42.870Z,4.63
2023-09-24T07:30:10.553Z,5.95
2023-09-24T07:32:38.635Z,5.55
2023-09-24T07:35:06.517Z,5.50
2023-09-24T07:37:33.229Z,6.00
2023-09-24T07:40:00.046Z,5.95
2023-09-24T07:42:26.874Z,4.70
2023-09-24T07:44:54.190Z,5.72
2023-09-24T07:47:21.014Z,6.55
2023-09-24T07:49:47.840Z,5.72
2023-09-24T07:52:15.521Z,4.93
2023-09-24T07:54:42.490Z,5.78
2023-09-24T07:57:09.332Z,6.18
2023-09-24T07:59:36.249Z,4.47
2023-09-24T08:02:03.515Z,5.38
2023-09-24T08:04:30.307Z,4.97
2023-09-24T08:06:57.347Z,5.45
2023-09-24T08:09:27.608Z,5.75
2023-09-24T08:11:56.054Z,7.10
2023-09-24T08:14:23.455Z,6.93
2023-09-24T08:16:51.507Z,6.47
2023-09-24T08:19:18.606Z,4.95
2023-09-24T08:21:45.347Z,6.63
2023-09-24T08:24:12.148Z,6.07
2023-09-24T08:26:38.963Z,5.68
2023-09-24T08:29:07.891Z,5.72
2023-09-24T08:31:36.064Z,4.57
2023-09-24T08:34:04.585Z,5.82
2023-09-24T08:36:31.414Z,5.20
2023-09-24T08:38:58.486Z,4.85
2023-09-24T08:41:25.860Z,4.60
2023-09-24T08:43:56.936Z,4.60
2023-09-24T08:46:25.317Z,5.57
2023-09-24T08:48:53.803Z,5.72
2023-09-24T08:51:21.634Z,4.53
2023-09-24T08:53:48.605Z,6.07
2023-09-24T08:56:17.098Z,4.25
2023-09-24T08:58:44.764Z,4.22
2023-09-24T09:01:12.905Z,4.00
2023-09-24T09:03:41.137Z,4.53
2023-09-24T09:06:08.485Z,4.00
2023-09-24T09:08:55.987Z,4.35
2023-09-24T09:11:38.099Z,3.60
2023-09-24T09:14:05.037Z,3.28
2023-09-24T09:16:32.584Z,2.58
2023-09-24T09:19:01.519Z,3.72
2023-09-24T09:21:29.100Z,3.05
2023-09-24T09:23:56.617Z,3.17
2023-09-24T09:26:34.548Z,1.85
2023-09-24T09:29:05.220Z,2.83
2023-09-24T09:31:32.256Z,2.63
2023-09-24T09:34:07.549Z,3.00
2023-09-24T09:36:35.853Z,2.28
2023-09-24T09:39:04.252Z,2.00
2023-09-24T09:41:34.168Z,2.72
2023-09-24T09:44:08.493Z,3.50
2023-09-24T09:46:38.641Z,2.40
2023-09-24T09:49:10.684Z,3.05
2023-09-24T09:51:49.677Z,2.33
2023-09-24T09:54:18.556Z,2.72
2023-09-24T09:56:45.682Z,2.28
2023-09-24T09:59:12.526Z,3.63
2023-09-24T10:01:39.390Z,3.30
2023-09-24T10:04:08.119Z,1.90
2023-09-24T10:06:39.262Z,2.65
2023-09-24T10:09:28.132Z,2.28
2023-09-24T10:11:57.569Z,1.17
2023-09-24T10:14:36.496Z,1.38
2023-09-24T10:17:24.525Z,2.40
2023-09-24T10:20:07.837Z,2.22
2023-09-24T10:22:36.174Z,2.65
2023-09-24T10:25:31.865Z,1.25
2023-09-24T10:28:16.484Z,1.45
2023-09-24T10:31:05.771Z,2.28
2023-09-24T10:33:55.118Z,2.45
2023-09-24T10:36:24.097Z,2.97
2023-09-24T10:39:11.851Z,1.92
2023-09-24T10:42:10.643Z,2.38
2023-09-24T10:44:38.621Z,1.65
2023-09-24T10:47:29.116Z,2.47
2023-09-24T10:50:17.776Z,1.23
2023-09-24T10:53:00.114Z,1.90
2023-09-24T10:55:36.079Z,1.67
2023-09-24T10:58:02.939Z,1.45
2023-09-24T11:00:31.090Z,1.30
2023-09-24T11:03:03.407Z,1.45
2023-09-24T11:05:34.470Z,1.40
2023-09-24T11:08:01.167Z,1.38
2023-09-24T11:10:28.140Z,1.40
2023-09-24T11:12:56.408Z,1.30
2023-09-24T11:15:25.247Z,1.65
2023-09-24T11:17:52.812Z,1.27
2023-09-24T11:20:22.148Z,1.92
2023-09-24T11:23:12.607Z,1.55
2023-09-24T11:25:40.198Z,3.80
2023-09-24T11:28:07.409Z,2.03
2023-09-24T11:30:49.011Z,1.23
2023-09-24T11:33:17.441Z,1.50
2023-09-24T11:35:45.872Z,1.73
2023-09-24T11:38:13.081Z,1.05
2023-09-24T11:40:42.067Z,1.17
2023-09-24T11:43:13.711Z,1.45
2023-09-24T11:45:49.862Z,1.40
2023-09-24T11:48:25.908Z,1.88
2023-09-24T11:50:54.574Z,1.75
2023-09-24T11:53:24.684Z,1.85
2023-09-24T11:55:54.361Z,1.52
2023-09-24T11:58:23.180Z,1.92
2023-09-24T12:00:50.009Z,1.73
2023-09-24T12:03:17.077Z,2.38
2023-09-24T12:05:44.120Z,2.10
2023-09-24T12:08:11.290Z,1.77
2023-09-24T12:10:42.944Z,1.52
2023-09-24T12:13:10.970Z,1.90
2023-09-24T12:15:38.761Z,2.33
2023-09-24T12:18:07.254Z,2.20
2023-09-24T12:20:35.703Z,1.73
2023-09-24T12:23:07.385Z,5.45
2023-09-24T12:25:39.448Z,2.65
2023-09-24T12:28:12.914Z,3.00
2023-09-24T12:30:39.909Z,2.72
2023-09-24T12:33:10.534Z,3.33
2023-09-24T12:35:41.224Z,2.55
2023-09-24T12:38:08.142Z,2.90
2023-09-24T12:40:35.051Z,3.05
2023-09-24T12:43:01.827Z,2.88
2023-09-24T12:45:28.718Z,1.85
2023-09-24T12:47:55.583Z,4.05
2023-09-24T12:50:22.429Z,2.97
2023-09-24T12:52:49.453Z,4.03
2023-09-24T12:55:17.561Z,2.20
2023-09-24T12:57:45.603Z,4.20
2023-09-24T13:00:13.585Z,3.65
2023-09-24T13:02:42.767Z,3.45
2023-09-24T13:05:11.286Z,2.63
2023-09-24T13:07:40.102Z,2.95
2023-09-24T13:10:07.947Z,3.17
2023-09-24T13:12:34.940Z,3.55
2023-09-24T13:15:02.386Z,2.72
2023-09-24T13:17:30.188Z,3.28
2023-09-24T13:19:57.017Z,2.97
2023-09-24T13:22:23.744Z,2.80
2023-09-24T13:24:50.596Z,3.83
2023-09-24T13:27:17.428Z,2.70
2023-09-24T13:29:44.425Z,3.07
2023-09-24T13:32:12.964Z,2.70
2023-09-24T13:34:39.934Z,3.33
2023-09-24T13:37:06.754Z,2.90
2023-09-24T13:39:33.494Z,4.40
2023-09-24T13:42:00.474Z,4.70
2023-09-24T13:44:27.351Z,4.00
2023-09-24T13:46:54.393Z,2.73
2023-09-24T13:49:21.279Z,3.30
2023-09-24T13:51:50.799Z,4.90
2023-09-24T13:54:17.619Z,3.23
2023-09-24T13:56:44.677Z,3.60
2023-09-24T13:59:12.923Z,4.20
2023-09-24T14:01:39.737Z,3.53
2023-09-24T14:04:06.726Z,3.43
2023-09-24T14:06:33.547Z,3.03
2023-09-24T14:09:19.128Z,4.67
2023-09-24T14:12:04.729Z,4.50
2023-09-24T14:14:31.449Z,2.97
2023-09-24T14:16:58.153Z,2.97
2023-09-24T14:19:24.938Z,2.67
2023-09-24T14:21:51.784Z,3.60
2023-09-24T14:24:18.570Z,3.97
2023-09-24T14:26:45.339Z,3.87
2023-09-24T14:29:12.099Z,2.73
2023-09-24T14:31:38.915Z,5.13
2023-09-24T14:34:05.709Z,4.30
2023-09-24T14:36:32.379Z,3.27
2023-09-24T14:39:03.458Z,2.67
2023-09-24T14:41:31.540Z,5.00
2023-09-24T14:43:59.226Z,4.07
2023-09-24T14:46:27.665Z,4.30
2023-09-24T14:48:54.625Z,3.57
2023-09-24T14:51:21.649Z,2.97
2023-09-24T14:53:49.092Z,3.30
2023-09-24T14:56:21.663Z,4.13
2023-09-24T14:58:48.528Z,3.43
2023-09-24T15:01:15.634Z,3.10
2023-09-24T15:03:42.670Z,3.63
2023-09-24T15:06:09.789Z,3.07
2023-09-24T15:08:37.194Z,4.00
2023-09-24T15:11:05.964Z,3.40
2023-09-24T15:13:33.822Z,3.00
2023-09-24T15:16:00.841Z,3.23
2023-09-24T15:18:27.737Z,3.13
2023-09-24T15:20:54.543Z,2.83
2023-09-24T15:23:22.032Z,2.80
2023-09-24T15:25:50.119Z,3.73
2023-09-24T15:28:17.989Z,2.57
2023-09-24T15:30:47.515Z,3.77
2023-09-24T15:33:15.579Z,4.33
2023-09-24T15:35:42.455Z,3.93
2023-09-24T15:38:11.277Z,2.97
2023-09-24T15:40:39.463Z,2.87
2023-09-24T15:43:07.930Z,3.00
2023-09-24T15:45:35.320Z,2.90
2023-09-24T15:48:05.228Z,3.10
2023-09-24T15:50:33.340Z,4.50
2023-09-24T15:53:00.335Z,2.60
2023-09-24T15:55:28.977Z,3.60
2023-09-24T15:57:56.016Z,3.60
2023-09-24T16:00:23.825Z,3.83
2023-09-24T16:02:51.066Z,2.43
2023-09-24T16:05:18.446Z,4.10
2023-09-24T16:07:45.504Z,2.10
2023-09-24T16:10:12.300Z,3.13
2023-09-24T16:12:39.139Z,2.90
2023-09-24T16:15:06.998Z,2.93
2023-09-24T16:17:33.933Z,3.87
2023-09-24T16:20:01.332Z,3.40
2023-09-24T16:22:28.321Z,3.37
2023-09-24T16:24:55.155Z,3.23
2023-09-24T16:27:23.389Z,3.63
2023-09-24T16:29:51.837Z,3.53
2023-09-24T16:32:19.333Z,3.83
2023-09-24T16:34:49.282Z,3.90
2023-09-24T16:37:16.222Z,2.50
2023-09-24T16:39:43.149Z,3.70
2023-09-24T16:42:10.255Z,3.70
2023-09-24T16:44:37.126Z,3.27
2023-09-24T16:47:06.537Z,4.07
2023-09-24T16:49:34.009Z,4.00
2023-09-24T16:52:01.354Z,2.43
2023-09-24T16:54:28.507Z,4.20
2023-09-24T16:56:56.205Z,3.07
2023-09-24T16:59:23.450Z,3.67
2023-09-24T17:01:52.437Z,4.00
2023-09-24T17:04:20.149Z,3.43
2023-09-24T17:06:47.416Z,2.87
2023-09-24T17:09:14.850Z,2.07
2023-09-24T17:11:43.094Z,3.50
2023-09-24T17:14:10.149Z,4.17
2023-09-24T17:16:36.891Z,2.50
2023-09-24T17:19:03.648Z,3.60
2023-09-24T17:21:30.490Z,4.33
2023-09-24T17:23:57.576Z,3.73
2023-09-24T17:26:24.740Z,3.90
2023-09-24T17:28:54.619Z,2.87
2023-09-24T17:31:21.858Z,3.03
2023-09-24T17:33:49.572Z,2.83
2023-09-24T17:36:19.662Z,3.07
2023-09-24T17:38:47.944Z,3.27
2023-09-24T17:41:16.378Z,3.30
2023-09-24T17:43:43.731Z,3.70
2023-09-24T17:46:16.685Z,3.03
2023-09-24T17:48:45.636Z,2.90
2023-09-24T17:51:13.191Z,4.30
2023-09-24T17:53:41.171Z,2.90
2023-09-24T17:56:09.000Z,2.27
2023-09-24T17:58:36.135Z,3.57
2023-09-24T18:01:08.859Z,4.63
2023-09-24T18:03:36.493Z,3.33
2023-09-24T18:06:03.509Z,4.17
2023-09-24T18:08:32.159Z,3.03
2023-09-24T18:10:59.772Z,3.07
2023-09-24T18:13:27.031Z,3.17
2023-09-24T18:15:59.195Z,2.83
2023-09-24T18:18:28.454Z,2.40
2023-09-24T18:20:59.906Z,3.87
2023-09-24T18:23:28.889Z,3.13
2023-09-24T18:25:56.035Z,3.50
2023-09-24T18:28:22.856Z,3.20
2023-09-24T18:30:50.214Z,3.03
2023-09-24T18:33:17.238Z,5.00
2023-09-24T18:35:44.628Z,3.10
2023-09-24T18:38:12.030Z,5.13
2023-09-24T18:40:41.253Z,6.40
2023-09-24T18:43:08.338Z,5.33
2023-09-24T18:45:37.941Z,4.83
2023-09-24T18:48:05.951Z,4.67
2023-09-24T18:50:35.430Z,3.33
2023-09-24T18:53:02.263Z,3.83
2023-09-24T18:55:29.057Z,4.73
2023-09-24T18:57:55.928Z,3.83
2023-09-24T19:00:22.795Z,5.10
2023-09-24T19:02:50.012Z,4.30
2023-09-24T19:05:17.316Z,4.53
2023-09-24T19:07:44.303Z,4.57
2023-09-24T19:10:14.807Z,3.40
2023-09-24T19:12:45.403Z,4.33
2023-09-24T19:15:13.760Z,3.20
2023-09-24T19:17:40.902Z,3.57
2023-09-24T19:20:08.748Z,4.43
2023-09-24T19:22:35.982Z,2.73
2023-09-24T19:25:02.981Z,3.93
2023-09-24T19:27:30.032Z,2.90
2023-09-24T19:29:58.316Z,3.80
2023-09-24T19:32:28.934Z,3.37
2023-09-24T19:34:56.102Z,5.03
2023-09-24T19:37:23.339Z,3.33
2023-09-24T19:39:50.396Z,4.37
2023-09-24T19:42:17.324Z,4.67
2023-09-24T19:44:46.966Z,4.10
2023-09-24T19:47:16.670Z,3.60
2023-09-24T19:49:44.270Z,4.43
2023-09-24T19:52:11.154Z,2.93
2023-09-24T19:54:38.195Z,4.27
2023-09-24T19:57:05.135Z,3.70
2023-09-24T19:59:33.201Z,3.43
2023-09-24T20:01:59.976Z,3.50
2023-09-24T20:04:26.740Z,4.03
2023-09-24T20:06:53.627Z,4.07
2023-09-24T20:09:20.710Z,2.90
2023-09-24T20:11:47.597Z,3.47
2023-09-24T20:14:15.170Z,3.97
2023-09-24T20:16:42.495Z,3.17
2023-09-24T20:19:10.385Z,2.47
2023-09-24T20:21:37.718Z,4.43
2023-09-24T20:24:10.279Z,4.50
2023-09-24T20:26:43.208Z,3.60
2023-09-24T20:29:10.616Z,3.70
2023-09-24T20:31:37.929Z,4.03
2023-09-24T20:34:05.810Z,5.50
2023-09-24T20:36:33.626Z,3.23
2023-09-24T20:39:07.725Z,3.43
2023-09-24T20:41:36.210Z,3.10
2023-09-24T20:44:04.030Z,4.10
2023-09-24T20:46:40.966Z,3.13
2023-09-24T20:49:10.015Z,5.07
2023-09-24T20:51:37.196Z,5.10
2023-09-24T20:54:04.400Z,2.20
2023-09-24T20:56:31.372Z,3.00
2023-09-24T20:59:02.446Z,3.77
2023-09-24T21:01:29.327Z,3.10
2023-09-24T21:03:56.393Z,3.63
2023-09-24T21:06:23.349Z,3.50
2023-09-24T21:08:50.350Z,3.70
2023-09-24T21:11:17.213Z,3.17
2023-09-24T21:13:44.886Z,3.77
2023-09-24T21:16:11.686Z,3.33
2023-09-24T21:18:38.573Z,4.10
2023-09-24T21:21:05.331Z,3.10
2023-09-24T21:23:32.126Z,3.93
2023-09-24T21:26:06.045Z,3.90
2023-09-24T21:28:33.849Z,3.17
2023-09-24T21:31:07.935Z,2.57
2023-09-24T21:33:36.277Z,5.30
2023-09-24T21:36:04.892Z,6.40
2023-09-24T21:38:31.812Z,2.87
2023-09-24T21:40:58.904Z,2.70
2023-09-24T21:43:31.059Z,6.27
2023-09-24T21:46:02.834Z,3.53
2023-09-24T21:48:30.425Z,3.57
2023-09-24T21:50:57.447Z,2.97
2023-09-24T21:53:24.385Z,3.37
2023-09-24T21:55:51.361Z,5.00
2023-09-24T21:58:19.266Z,4.07
2023-09-24T22:00:46.162Z,3.77
2023-09-24T22:03:13.511Z,3.57
2023-09-24T22:05:42.402Z,2.40
2023-09-24T22:08:10.128Z,5.23
2023-09-24T22:10:36.980Z,2.40
2023-09-24T22:13:04.216Z,3.27
2023-09-24T22:15:31.129Z,3.10
2023-09-24T22:17:58.104Z,3.70
2023-09-24T22:20:25.000Z,3.83
2023-09-24T22:22:51.838Z,2.83
2023-09-24T22:25:18.642Z,5.00
2023-09-24T22:27:45.573Z,2.70
2023-09-24T22:30:14.745Z,4.00
2023-09-24T22:32:43.776Z,2.77
2023-09-24T22:35:13.127Z,2.70
2023-09-24T22:37:42.183Z,3.73
2023-09-24T22:40:11.000Z,3.50
2023-09-24T22:42:39.104Z,2.93
2023-09-24T22:45:07.755Z,3.10
2023-09-24T22:47:34.665Z,3.80
2023-09-24T22:50:01.585Z,3.60
2023-09-24T22:52:28.352Z,4.53
2023-09-24T22:54:55.128Z,3.10
2023-09-24T22:57:22.110Z,5.27
2023-09-24T22:59:48.879Z,2.43
2023-09-24T23:02:15.877Z,3.23
2023-09-24T23:04:42.654Z,2.73
2023-09-24T23:07:09.861Z,3.03
2023-09-24T23:09:37.206Z,4.90
2023-09-24T23:12:04.494Z,3.53
2023-09-24T23:14:31.290Z,2.30
2023-09-24T23:16:58.017Z,2.70
2023-09-24T23:19:25.014Z,2.67
2023-09-24T23:21:52.697Z,3.43
2023-09-24T23:24:19.496Z,4.60
2023-09-24T23:26:46.865Z,3.47
2023-09-24T23:29:14.247Z,2.70
2023-09-24T23:31:41.308Z,2.60
2023-09-24T23:34:10.148Z,3.50
2023-09-24T23:36:38.072Z,3.37
2023-09-24T23:39:13.246Z,3.80
2023-09-24T23:41:41.207Z,7.10
2023-09-24T23:44:09.224Z,2.90
2023-09-24T23:46:37.066Z,3.67
2023-09-24T23:49:04.004Z,3.37
2023-09-24T23:51:32.198Z,3.57
2023-09-24T23:54:01.678Z,2.47
2023-09-24T23:56:28.467Z,3.20
2023-09-24T23:58:55.243Z,3.30
